Wheelwright, Argentina
Current Conditions -  °F | °C
As of 3:00 PM on Monday 24 Nov 2014 (Local Time) from SAAR Reporting Station
Broken Clouds Broken Clouds  
Wind Chill: 79°   Ceiling: 10000
Heat Index: 80°   Visibility: 6mi
Dew Point: 63°   Wind: 15mph
Humidity: 57%   Direction: 160°SSE
Pressure: 29.77"   Gusts: NA
Location:  33.78°S, 61.22°W
Report Text: SAAR 241800Z 16013KT 9999 SCT015 SCT019BKN100 26/17 Q1008
Loading
Personal Weather Stations






























Interactive Weather Map New forecast layout! Learn more

10-Day Weather Forecast

Advertisements
Track Severe Weather on mobile